Time;durP1;ratioP1;P1;durP2;ratioP2;P2;SDS_P1;SDS_P2;PMS_P1;PMS_P2;Temp;Humidity;BMP_temperature;BMP_pressure;BME280_temperature;BME280_humidity;BME280_pressure;Samples;Min_cycle;Max_cycle;Signal;HPM_P1;HPM_P2
2022/08/13 00:00:11;;;;;;;5.28;2.08;;;;;;;;;;5110429;28;20479;-56
2022/08/13 00:02:42;;;;;;;4.97;2.38;;;;;;;;;;5108494;28;20805;-57
2022/08/13 00:05:09;;;;;;;2.10;1.90;;;;;;;;;;5110551;28;20465;-57
2022/08/13 00:07:35;;;;;;;2.77;2.13;;;;;;;;;;5110216;28;20408;-57
2022/08/13 00:10:01;;;;;;;4.45;2.30;;;;;;;;;;5110536;28;20404;-57
2022/08/13 00:15:17;;;;;;;2.85;2.20;;;;;;;;;;5109591;28;20476;-56
2022/08/13 00:17:43;;;;;;;3.35;1.80;;;;;;;;;;5110537;28;20400;-55
2022/08/13 00:20:11;;;;;;;4.85;2.05;;;;;;;;;;5111041;28;20475;-56
2022/08/13 00:22:37;;;;;;;3.80;2.00;;;;;;;;;;5108217;28;20439;-56
2022/08/13 00:25:04;;;;;;;3.30;2.00;;;;;;;;;;5109280;28;20442;-56
2022/08/13 00:27:30;;;;;;;2.30;2.10;;;;;;;;;;5109878;28;20487;-56
2022/08/13 00:29:56;;;;;;;2.85;2.25;;;;;;;;;;5110067;28;20507;-57
2022/08/13 00:32:27;;;;;;;4.05;2.20;;;;;;;;;;5110545;28;20403;-57
2022/08/13 00:34:53;;;;;;;4.47;2.30;;;;;;;;;;5110089;28;20759;-57
2022/08/13 00:37:20;;;;;;;3.15;2.33;;;;;;;;;;5109452;28;20875;-57
2022/08/13 00:39:46;;;;;;;3.85;2.40;;;;;;;;;;5109530;28;20396;-57
2022/08/13 00:42:12;;;;;;;3.42;2.38;;;;;;;;;;5110261;28;20385;-57
2022/08/13 00:44:39;;;;;;;4.97;2.30;;;;;;;;;;5110129;28;20465;-55
2022/08/13 00:49:51;;;;;;;4.80;2.50;;;;;;;;;;5110166;28;20785;-57
2022/08/13 00:52:18;;;;;;;4.45;2.60;;;;;;;;;;5110353;28;20404;-57
2022/08/13 00:54:44;;;;;;;4.50;2.30;;;;;;;;;;5109977;28;20392;-56
2022/08/13 00:57:12;;;;;;;3.00;2.30;;;;;;;;;;5110377;28;20759;-56
2022/08/13 00:59:38;;;;;;;2.93;2.40;;;;;;;;;;5110311;28;20459;-57
2022/08/13 01:02:04;;;;;;;2.78;2.20;;;;;;;;;;5110050;28;20421;-56
2022/08/13 01:04:31;;;;;;;3.92;2.50;;;;;;;;;;5110459;28;20408;-56
2022/08/13 01:07:00;;;;;;;3.42;2.50;;;;;;;;;;5109833;28;20712;-57
2022/08/13 01:09:29;;;;;;;3.03;2.50;;;;;;;;;;5110251;28;20404;-56
2022/08/13 01:11:55;;;;;;;3.22;2.30;;;;;;;;;;5109931;28;20404;-55
2022/08/13 01:14:24;;;;;;;4.57;2.63;;;;;;;;;;5108548;28;20407;-55
2022/08/13 01:16:52;;;;;;;4.10;2.67;;;;;;;;;;5109490;28;20400;-56
2022/08/13 01:19:18;;;;;;;3.17;2.20;;;;;;;;;;5110167;28;20766;-56
2022/08/13 01:21:46;;;;;;;4.78;2.20;;;;;;;;;;5109826;28;20487;-56
2022/08/13 01:24:12;;;;;;;3.33;2.22;;;;;;;;;;5110137;28;20420;-56
2022/08/13 01:26:39;;;;;;;4.25;2.40;;;;;;;;;;5110063;28;20400;-56
2022/08/13 01:29:06;;;;;;;3.75;2.28;;;;;;;;;;5109620;28;20816;-55
2022/08/13 01:31:34;;;;;;;3.13;2.50;;;;;;;;;;5110280;28;20397;-55
2022/08/13 01:34:01;;;;;;;3.92;2.30;;;;;;;;;;5109367;28;20397;-56
2022/08/13 01:36:27;;;;;;;4.03;2.10;;;;;;;;;;5110226;28;20422;-57
2022/08/13 01:38:57;;;;;;;4.65;2.40;;;;;;;;;;5109760;28;20743;-57
2022/08/13 01:41:24;;;;;;;4.53;2.33;;;;;;;;;;5112918;28;20693;-57
2022/08/13 01:43:51;;;;;;;7.55;2.40;;;;;;;;;;5113430;28;20420;-56
2022/08/13 01:46:17;;;;;;;3.38;2.25;;;;;;;;;;5112955;28;20468;-57
2022/08/13 01:51:29;;;;;;;3.97;2.13;;;;;;;;;;5113392;28;20387;-57
2022/08/13 01:53:58;;;;;;;2.78;2.20;;;;;;;;;;5113277;28;20392;-56
2022/08/13 01:56:25;;;;;;;3.80;2.10;;;;;;;;;;5112953;28;20442;-57
2022/08/13 01:58:51;;;;;;;3.55;2.42;;;;;;;;;;5113182;28;20428;-57
2022/08/13 02:01:17;;;;;;;2.88;2.17;;;;;;;;;;5113417;28;20392;-57
2022/08/13 02:03:49;;;;;;;3.05;2.20;;;;;;;;;;5113170;28;20412;-57
2022/08/13 02:06:20;;;;;;;3.65;2.50;;;;;;;;;;5113297;28;20388;-57
2022/08/13 02:08:49;;;;;;;4.82;2.40;;;;;;;;;;5112981;28;20902;-57
2022/08/13 02:11:16;;;;;;;2.90;2.50;;;;;;;;;;5113301;28;20808;-57
2022/08/13 02:13:42;;;;;;;4.03;2.28;;;;;;;;;;5112926;28;20404;-57
2022/08/13 02:16:08;;;;;;;4.35;2.25;;;;;;;;;;5111504;28;20403;-57
2022/08/13 02:18:34;;;;;;;3.67;2.30;;;;;;;;;;5112132;28;20963;-57
2022/08/13 02:21:04;;;;;;;3.33;2.30;;;;;;;;;;5112918;28;20453;-57
2022/08/13 02:23:31;;;;;;;4.53;2.30;;;;;;;;;;5112941;28;20408;-56
2022/08/13 02:25:58;;;;;;;3.60;2.20;;;;;;;;;;5112687;28;20396;-57
2022/08/13 02:28:25;;;;;;;3.95;2.20;;;;;;;;;;5112753;28;20406;-57
2022/08/13 02:30:53;;;;;;;3.15;2.30;;;;;;;;;;5112504;28;20399;-57
2022/08/13 02:33:20;;;;;;;2.55;2.35;;;;;;;;;;5112372;28;20911;-57
2022/08/13 02:35:46;;;;;;;4.07;2.20;;;;;;;;;;5112294;28;20388;-57
2022/08/13 02:38:13;;;;;;;3.78;2.47;;;;;;;;;;5111408;28;20404;-57
2022/08/13 02:43:25;;;;;;;2.33;2.13;;;;;;;;;;5112546;28;20928;-57
2022/08/13 02:45:53;;;;;;;4.50;2.20;;;;;;;;;;5112200;28;20495;-57
2022/08/13 02:48:19;;;;;;;3.03;2.10;;;;;;;;;;5111991;28;20957;-57
2022/08/13 02:50:45;;;;;;;5.30;2.30;;;;;;;;;;5111834;28;20813;-57
2022/08/13 02:53:13;;;;;;;3.50;2.20;;;;;;;;;;5112150;28;20621;-57
2022/08/13 02:55:41;;;;;;;3.17;2.20;;;;;;;;;;5112085;28;20396;-57
2022/08/13 02:58:07;;;;;;;3.35;2.17;;;;;;;;;;5112056;28;20423;-57
2022/08/13 03:00:35;;;;;;;3.22;2.25;;;;;;;;;;5112176;28;20381;-57
2022/08/13 03:03:02;;;;;;;3.58;2.40;;;;;;;;;;5111411;28;20404;-57
2022/08/13 03:05:30;;;;;;;2.97;2.42;;;;;;;;;;5112220;28;20471;-57
2022/08/13 03:07:56;;;;;;;4.22;2.20;;;;;;;;;;5111653;28;20586;-57
2022/08/13 03:10:23;;;;;;;4.82;2.35;;;;;;;;;;5111880;28;20408;-57
2022/08/13 03:12:51;;;;;;;2.80;2.10;;;;;;;;;;5111658;28;20759;-57
2022/08/13 03:15:18;;;;;;;3.65;2.30;;;;;;;;;;5112053;28;20400;-57
2022/08/13 03:17:45;;;;;;;3.95;2.40;;;;;;;;;;5110497;28;20412;-57
2022/08/13 03:20:16;;;;;;;5.70;2.40;;;;;;;;;;5111840;28;20399;-57
2022/08/13 03:22:49;;;;;;;3.67;2.47;;;;;;;;;;5111655;28;20408;-57
2022/08/13 03:25:16;;;;;;;4.07;2.30;;;;;;;;;;5110304;28;20424;-57
2022/08/13 03:27:42;;;;;;;3.25;2.40;;;;;;;;;;5111474;28;20937;-57
2022/08/13 03:30:11;;;;;;;4.20;2.35;;;;;;;;;;5111522;28;21170;-57
2022/08/13 03:32:38;;;;;;;2.75;2.40;;;;;;;;;;5111044;28;20401;-57
2022/08/13 03:35:05;;;;;;;2.97;2.45;;;;;;;;;;5111338;28;20388;-57
2022/08/13 03:37:36;;;;;;;3.40;2.33;;;;;;;;;;5111438;28;20839;-56
2022/08/13 03:40:02;;;;;;;4.90;2.60;;;;;;;;;;5110639;28;20388;-57
2022/08/13 03:42:28;;;;;;;3.42;2.50;;;;;;;;;;5111302;28;20392;-57
2022/08/13 03:44:54;;;;;;;3.78;2.65;;;;;;;;;;5111122;28;20886;-57
2022/08/13 03:47:20;;;;;;;5.55;2.75;;;;;;;;;;5111172;28;20807;-57
2022/08/13 03:49:46;;;;;;;3.83;2.40;;;;;;;;;;5109218;28;20403;-57
2022/08/13 03:52:13;;;;;;;3.60;2.40;;;;;;;;;;5110958;28;20404;-57
2022/08/13 03:54:39;;;;;;;3.83;2.40;;;;;;;;;;5110809;28;20404;-57
2022/08/13 03:57:05;;;;;;;3.30;2.50;;;;;;;;;;5110710;28;20901;-57
2022/08/13 03:59:31;;;;;;;4.07;2.40;;;;;;;;;;5110919;28;20388;-56
2022/08/13 04:02:01;;;;;;;3.77;2.53;;;;;;;;;;5110280;28;20757;-57
2022/08/13 04:04:27;;;;;;;4.45;2.60;;;;;;;;;;5110278;28;20439;-57
2022/08/13 04:06:53;;;;;;;2.58;2.38;;;;;;;;;;5108859;28;20496;-57
2022/08/13 04:09:20;;;;;;;4.50;2.60;;;;;;;;;;5110155;28;20483;-56
2022/08/13 04:11:46;;;;;;;3.70;2.67;;;;;;;;;;5110664;28;20411;-56
2022/08/13 04:14:12;;;;;;;4.10;2.50;;;;;;;;;;5110692;28;20407;-56
2022/08/13 04:16:40;;;;;;;3.40;2.40;;;;;;;;;;5110590;28;20397;-56
2022/08/13 04:19:06;;;;;;;5.43;2.63;;;;;;;;;;5109618;28;20445;-56
2022/08/13 04:21:33;;;;;;;4.07;2.50;;;;;;;;;;5110154;28;20415;-56
2022/08/13 04:24:02;;;;;;;3.10;2.70;;;;;;;;;;5110501;28;20487;-56
2022/08/13 04:26:30;;;;;;;4.13;2.45;;;;;;;;;;5110552;28;20432;-56
2022/08/13 04:28:57;;;;;;;5.32;2.30;;;;;;;;;;5110334;28;20400;-57
2022/08/13 04:31:23;;;;;;;3.67;2.70;;;;;;;;;;5110479;28;20483;-56
2022/08/13 04:33:49;;;;;;;3.55;2.63;;;;;;;;;;5110191;28;20475;-57
2022/08/13 04:36:16;;;;;;;5.28;2.70;;;;;;;;;;5110232;28;20902;-56
2022/08/13 04:38:42;;;;;;;4.05;2.58;;;;;;;;;;5110144;28;20958;-56
2022/08/13 04:41:09;;;;;;;4.90;2.60;;;;;;;;;;5110115;28;20500;-56
2022/08/13 04:43:36;;;;;;;4.38;2.50;;;;;;;;;;5107888;28;20435;-57
2022/08/13 04:46:02;;;;;;;5.20;2.85;;;;;;;;;;5110563;28;20453;-57
2022/08/13 04:48:33;;;;;;;4.45;2.60;;;;;;;;;;5110356;28;20400;-56
2022/08/13 04:51:00;;;;;;;5.10;3.03;;;;;;;;;;5110314;28;20750;-56
2022/08/13 04:53:26;;;;;;;4.18;2.60;;;;;;;;;;5110191;28;20851;-57
2022/08/13 04:55:53;;;;;;;3.30;2.63;;;;;;;;;;5110011;28;20489;-56
2022/08/13 04:58:19;;;;;;;4.60;2.55;;;;;;;;;;5110251;28;20400;-57
2022/08/13 05:00:46;;;;;;;4.97;2.70;;;;;;;;;;5110221;28;20414;-56
2022/08/13 05:03:14;;;;;;;6.03;2.92;;;;;;;;;;5108994;28;20412;-56
2022/08/13 05:05:41;;;;;;;3.70;2.80;;;;;;;;;;5110244;28;20477;-54
2022/08/13 05:08:07;;;;;;;4.63;2.63;;;;;;;;;;5109877;28;20404;-56
2022/08/13 05:10:37;;;;;;;5.20;2.90;;;;;;;;;;5110001;28;20414;-55
2022/08/13 05:13:04;;;;;;;3.72;2.60;;;;;;;;;;5109997;28;20410;-55
2022/08/13 05:15:31;;;;;;;3.80;2.83;;;;;;;;;;5113690;28;20449;-55
2022/08/13 05:17:58;;;;;;;4.50;2.63;;;;;;;;;;5113822;28;20924;-56
2022/08/13 05:20:24;;;;;;;3.47;2.45;;;;;;;;;;5113919;28;20404;-56
2022/08/13 05:23:01;;;;;;;4.40;2.60;;;;;;;;;;5113710;28;20895;-56
2022/08/13 05:25:27;;;;;;;4.25;2.60;;;;;;;;;;5112514;28;20419;-56
2022/08/13 05:27:55;;;;;;;4.22;2.78;;;;;;;;;;5113572;28;20400;-55
2022/08/13 05:30:21;;;;;;;4.35;2.50;;;;;;;;;;5113619;28;20481;-56
2022/08/13 05:32:49;;;;;;;3.70;2.40;;;;;;;;;;5113364;28;20437;-55
2022/08/13 05:35:16;;;;;;;4.40;2.58;;;;;;;;;;5113779;28;20882;-56
2022/08/13 05:37:42;;;;;;;5.93;2.53;;;;;;;;;;5113392;28;20933;-55
2022/08/13 05:40:09;;;;;;;3.25;2.45;;;;;;;;;;5113147;28;20400;-55
2022/08/13 05:42:38;;;;;;;3.50;2.33;;;;;;;;;;5112963;28;20958;-56
2022/08/13 05:45:04;;;;;;;6.55;2.60;;;;;;;;;;5112860;28;21025;-56
2022/08/13 05:47:30;;;;;;;2.95;2.55;;;;;;;;;;5112309;28;20408;-56
2022/08/13 05:49:56;;;;;;;3.90;2.40;;;;;;;;;;5113223;28;20487;-54
2022/08/13 05:52:25;;;;;;;4.85;2.60;;;;;;;;;;5113246;28;20392;-55
2022/08/13 05:54:55;;;;;;;4.32;2.55;;;;;;;;;;5113036;28;20403;-56
2022/08/13 05:57:21;;;;;;;4.50;2.40;;;;;;;;;;5113234;28;20392;-56
2022/08/13 06:05:17;;;;;;;2.67;2.42;;;;;;;;;;5110751;28;20416;-56
2022/08/13 06:07:45;;;;;;;3.78;2.53;;;;;;;;;;5112377;28;20408;-56
2022/08/13 06:10:12;;;;;;;6.43;2.60;;;;;;;;;;5112869;28;20404;-56
2022/08/13 06:12:42;;;;;;;2.78;2.47;;;;;;;;;;5112759;28;20475;-56
2022/08/13 06:15:10;;;;;;;2.85;2.42;;;;;;;;;;5112715;28;20396;-56
2022/08/13 06:17:36;;;;;;;4.50;2.55;;;;;;;;;;5112559;28;20453;-56
2022/08/13 06:20:03;;;;;;;4.95;2.50;;;;;;;;;;5112343;28;20492;-57
2022/08/13 06:22:31;;;;;;;8.07;2.30;;;;;;;;;;5110973;28;20412;-57
2022/08/13 06:24:58;;;;;;;6.47;2.53;;;;;;;;;;5110730;28;20952;-56
2022/08/13 06:27:25;;;;;;;3.20;2.40;;;;;;;;;;5111005;28;20404;-55
2022/08/13 06:29:51;;;;;;;2.85;2.30;;;;;;;;;;5110526;28;20408;-56
2022/08/13 06:32:20;;;;;;;3.33;2.40;;;;;;;;;;5112893;28;20408;-55
2022/08/13 06:34:46;;;;;;;4.70;2.53;;;;;;;;;;5110666;28;20399;-56
2022/08/13 06:37:12;;;;;;;3.78;2.20;;;;;;;;;;5111255;28;20396;-56
2022/08/13 06:39:39;;;;;;;2.47;2.23;;;;;;;;;;5112075;28;20384;-56
2022/08/13 06:42:06;;;;;;;4.88;2.50;;;;;;;;;;5111737;28;20814;-56
2022/08/13 06:44:33;;;;;;;3.42;2.40;;;;;;;;;;5109959;28;20408;-56
2022/08/13 06:47:02;;;;;;;4.80;2.15;;;;;;;;;;5112361;28;20407;-56
2022/08/13 06:49:28;;;;;;;2.55;2.30;;;;;;;;;;5111668;28;20403;-56
2022/08/13 06:51:55;;;;;;;4.53;2.25;;;;;;;;;;5110734;28;20599;-57
2022/08/13 06:54:22;;;;;;;4.38;2.25;;;;;;;;;;5110430;28;20395;-57
2022/08/13 06:56:48;;;;;;;3.38;2.10;;;;;;;;;;5110784;28;20393;-57
2022/08/13 06:59:16;;;;;;;3.38;2.20;;;;;;;;;;5109930;28;20407;-56
2022/08/13 07:01:42;;;;;;;2.55;2.28;;;;;;;;;;5111730;28;20801;-56
2022/08/13 07:04:13;;;;;;;5.80;2.58;;;;;;;;;;5111460;28;20428;-57
2022/08/13 07:06:40;;;;;;;5.63;2.40;;;;;;;;;;5111745;28;20418;-57
2022/08/13 07:09:07;;;;;;;3.85;2.35;;;;;;;;;;5111657;28;20396;-56
2022/08/13 07:11:33;;;;;;;7.00;2.30;;;;;;;;;;5111736;28;20463;-56
2022/08/13 07:13:59;;;;;;;3.25;2.42;;;;;;;;;;5109383;28;20399;-56
2022/08/13 07:16:30;;;;;;;3.38;2.20;;;;;;;;;;5111685;28;20407;-56
2022/08/13 07:18:56;;;;;;;6.13;2.50;;;;;;;;;;5110956;28;20533;-56
2022/08/13 07:21:24;;;;;;;4.57;2.20;;;;;;;;;;5111231;28;20445;-56
2022/08/13 07:23:51;;;;;;;3.63;2.25;;;;;;;;;;5110034;28;20500;-56
2022/08/13 07:26:18;;;;;;;5.18;2.33;;;;;;;;;;5111906;28;20404;-57
2022/08/13 07:28:45;;;;;;;4.93;2.50;;;;;;;;;;5111560;28;20403;-57
2022/08/13 07:31:12;;;;;;;3.85;2.40;;;;;;;;;;5111283;28;20431;-57
2022/08/13 07:33:42;;;;;;;3.55;2.17;;;;;;;;;;5109800;28;20424;-58
2022/08/13 07:36:10;;;;;;;4.63;2.30;;;;;;;;;;5110835;28;20411;-58
2022/08/13 07:38:36;;;;;;;3.95;2.10;;;;;;;;;;5110154;28;20392;-57
2022/08/13 07:41:03;;;;;;;3.90;2.22;;;;;;;;;;5111297;28;20396;-58
2022/08/13 07:43:32;;;;;;;4.10;2.13;;;;;;;;;;5110361;28;20392;-57
2022/08/13 07:46:00;;;;;;;4.57;2.30;;;;;;;;;;5110945;28;20491;-58
2022/08/13 07:48:27;;;;;;;3.65;2.10;;;;;;;;;;5109710;28;20403;-57
2022/08/13 07:50:54;;;;;;;3.55;1.85;;;;;;;;;;5110938;28;20404;-56
2022/08/13 07:53:21;;;;;;;4.53;2.15;;;;;;;;;;5110894;28;20414;-56
2022/08/13 07:55:47;;;;;;;6.38;2.30;;;;;;;;;;5111077;28;20396;-57
2022/08/13 07:58:13;;;;;;;3.78;2.10;;;;;;;;;;5110722;28;20931;-56
2022/08/13 08:00:39;;;;;;;3.20;2.05;;;;;;;;;;5110079;28;20441;-57
2022/08/13 08:03:05;;;;;;;2.63;2.00;;;;;;;;;;5110767;28;20453;-58
2022/08/13 08:05:34;;;;;;;4.25;2.30;;;;;;;;;;5110762;28;20515;-57
2022/08/13 08:08:03;;;;;;;5.72;2.45;;;;;;;;;;5109395;28;20407;-57
2022/08/13 08:10:29;;;;;;;8.20;4.03;;;;;;;;;;5110970;28;20408;-57
2022/08/13 08:13:00;;;;;;;4.47;2.30;;;;;;;;;;5110723;28;20399;-57
2022/08/13 08:15:27;;;;;;;7.65;6.25;;;;;;;;;;5110445;28;20937;-57
2022/08/13 08:17:53;;;;;;;6.05;2.65;;;;;;;;;;5110663;28;20425;-56
2022/08/13 08:20:21;;;;;;;4.65;2.40;;;;;;;;;;5110576;28;20432;-57
2022/08/13 08:22:47;;;;;;;4.07;2.20;;;;;;;;;;5112010;28;20603;-56
2022/08/13 08:25:17;;;;;;;4.20;2.50;;;;;;;;;;5111691;28;20279;-56
2022/08/13 08:27:43;;;;;;;4.90;2.33;;;;;;;;;;5093647;28;20196;-57
2022/08/13 08:30:09;;;;;;;2.80;2.20;;;;;;;;;;5111763;28;20259;-58
2022/08/13 08:32:37;;;;;;;7.10;2.20;;;;;;;;;;5111902;28;20240;-58
2022/08/13 08:35:03;;;;;;;5.63;2.17;;;;;;;;;;5111765;28;20291;-59
2022/08/13 08:43:02;;;;;;;5.80;1.93;;;;;;;;;;5111684;28;20252;-58
2022/08/13 08:45:28;;;;;;;3.47;2.20;;;;;;;;;;5111711;28;20233;-58
2022/08/13 08:47:54;;;;;;;3.53;2.17;;;;;;;;;;5111471;28;20200;-58
2022/08/13 08:50:22;;;;;;;4.73;2.47;;;;;;;;;;5114734;27;20194;-57
2022/08/13 08:55:36;;;;;;;4.33;2.20;;;;;;;;;;5114698;28;20663;-56
2022/08/13 08:58:04;;;;;;;2.37;2.00;;;;;;;;;;5115620;28;20213;-55
2022/08/13 09:00:33;;;;;;;3.07;2.00;;;;;;;;;;5114531;28;20268;-61
2022/08/13 09:03:00;;;;;;;4.57;2.07;;;;;;;;;;5115746;28;20662;-60
2022/08/13 09:05:32;;;;;;;6.03;2.60;;;;;;;;;;5114283;28;20358;-60
2022/08/13 09:08:00;;;;;;;4.93;2.20;;;;;;;;;;5114689;28;20609;-57
2022/08/13 09:10:26;;;;;;;3.33;2.40;;;;;;;;;;5115099;28;20686;-61
2022/08/13 09:12:52;;;;;;;2.80;2.47;;;;;;;;;;5115280;28;20199;-59
2022/08/13 09:15:21;;;;;;;7.23;2.63;;;;;;;;;;5115314;28;20190;-59
2022/08/13 09:17:48;;;;;;;3.00;2.70;;;;;;;;;;5114650;28;20251;-59
2022/08/13 09:20:15;;;;;;;4.20;2.60;;;;;;;;;;5114697;28;20201;-59
2022/08/13 09:22:42;;;;;;;4.33;2.77;;;;;;;;;;5115201;28;20653;-59
2022/08/13 09:25:09;;;;;;;5.07;2.70;;;;;;;;;;5112616;28;20225;-58
2022/08/13 09:27:36;;;;;;;3.50;2.30;;;;;;;;;;5113864;28;20193;-60
2022/08/13 09:30:02;;;;;;;2.60;2.40;;;;;;;;;;5114351;28;20200;-59
2022/08/13 09:32:30;;;;;;;5.40;2.90;;;;;;;;;;5114492;28;20195;-58
2022/08/13 09:34:57;;;;;;;2.80;2.20;;;;;;;;;;5113043;28;20283;-59
2022/08/13 09:37:23;;;;;;;4.30;2.50;;;;;;;;;;5114897;28;20199;-60
2022/08/13 09:39:52;;;;;;;3.30;2.50;;;;;;;;;;5115026;28;20228;-60
2022/08/13 09:42:23;;;;;;;5.00;2.33;;;;;;;;;;5115084;28;20650;-58
2022/08/13 09:44:51;;;;;;;4.80;2.20;;;;;;;;;;5114966;28;20264;-58
2022/08/13 09:47:17;;;;;;;6.80;2.47;;;;;;;;;;5115150;28;20201;-59
2022/08/13 09:49:46;;;;;;;3.40;2.63;;;;;;;;;;5115136;28;20198;-59
2022/08/13 09:52:12;;;;;;;2.40;2.20;;;;;;;;;;5115067;28;20249;-58
2022/08/13 09:54:40;;;;;;;4.27;2.30;;;;;;;;;;5114849;28;20197;-60
2022/08/13 09:57:06;;;;;;;4.33;2.50;;;;;;;;;;5114663;28;20618;-60
2022/08/13 09:59:33;;;;;;;5.13;2.50;;;;;;;;;;5114945;28;20240;-60
2022/08/13 10:01:59;;;;;;;7.60;2.50;;;;;;;;;;5113777;28;20197;-60
2022/08/13 10:04:26;;;;;;;5.13;2.13;;;;;;;;;;5114693;28;20251;-59
2022/08/13 10:06:56;;;;;;;3.23;2.50;;;;;;;;;;5114378;28;20209;-59
2022/08/13 10:09:25;;;;;;;5.93;2.70;;;;;;;;;;5114654;28;20254;-60
2022/08/13 10:11:52;;;;;;;3.40;2.67;;;;;;;;;;5114595;28;20208;-59
2022/08/13 10:14:18;;;;;;;6.40;2.43;;;;;;;;;;5114484;28;20564;-59
2022/08/13 10:16:44;;;;;;;6.37;2.60;;;;;;;;;;5114442;28;20286;-59
2022/08/13 10:19:10;;;;;;;5.13;2.90;;;;;;;;;;5112481;28;20206;-60
2022/08/13 10:21:36;;;;;;;5.30;2.30;;;;;;;;;;5112802;28;20192;-60
2022/08/13 10:24:04;;;;;;;3.30;2.30;;;;;;;;;;5114034;28;20226;-60
2022/08/13 10:26:30;;;;;;;5.87;2.43;;;;;;;;;;5114263;28;20209;-59
2022/08/13 10:28:56;;;;;;;5.40;2.40;;;;;;;;;;5113175;28;20204;-59
2022/08/13 10:31:28;;;;;;;5.97;2.50;;;;;;;;;;5113120;28;20224;-60
2022/08/13 10:33:54;;;;;;;5.03;2.30;;;;;;;;;;5113609;28;20270;-59
2022/08/13 10:36:21;;;;;;;3.80;2.90;;;;;;;;;;5113852;28;20231;-59
2022/08/13 10:38:47;;;;;;;4.07;2.50;;;;;;;;;;5114137;28;20201;-60
2022/08/13 10:41:15;;;;;;;4.50;2.70;;;;;;;;;;5111106;28;20208;-60
2022/08/13 10:43:41;;;;;;;3.80;2.60;;;;;;;;;;5112520;28;20233;-60
2022/08/13 10:46:11;;;;;;;7.40;2.67;;;;;;;;;;5111589;28;20270;-60
2022/08/13 10:48:38;;;;;;;6.17;2.60;;;;;;;;;;5113723;28;20193;-60
2022/08/13 10:51:04;;;;;;;2.93;2.43;;;;;;;;;;5111777;28;20612;-60
2022/08/13 10:56:17;;;;;;;4.03;2.60;;;;;;;;;;5113637;28;20202;-60
2022/08/13 10:58:43;;;;;;;3.50;2.60;;;;;;;;;;5113544;28;20205;-60
2022/08/13 11:01:10;;;;;;;5.40;2.70;;;;;;;;;;5111370;28;20205;-60
2022/08/13 11:03:36;;;;;;;3.33;2.83;;;;;;;;;;5113126;28;20202;-60
2022/08/13 11:06:04;;;;;;;4.83;2.70;;;;;;;;;;5112873;28;20206;-60
2022/08/13 11:08:35;;;;;;;3.67;2.67;;;;;;;;;;5112938;28;20708;-60
2022/08/13 11:11:01;;;;;;;3.93;2.50;;;;;;;;;;5113120;28;20247;-60
2022/08/13 11:13:31;;;;;;;3.23;2.20;;;;;;;;;;5112903;28;20190;-60
2022/08/13 11:15:58;;;;;;;3.50;2.70;;;;;;;;;;5112983;28;20234;-59
2022/08/13 11:18:24;;;;;;;5.53;2.90;;;;;;;;;;5111991;28;20920;-60
2022/08/13 11:21:06;;;;;;;3.70;2.77;;;;;;;;;;5113010;28;20208;-61
2022/08/13 11:23:32;;;;;;;5.73;3.00;;;;;;;;;;5111685;28;20574;-59
2022/08/13 11:25:58;;;;;;;3.90;2.80;;;;;;;;;;5111266;28;20216;-59
2022/08/13 11:28:24;;;;;;;3.23;2.93;;;;;;;;;;5113143;28;20206;-59
2022/08/13 11:30:53;;;;;;;5.13;3.00;;;;;;;;;;5112694;28;20196;-59
2022/08/13 11:33:20;;;;;;;4.53;3.30;;;;;;;;;;5112738;28;20299;-59
2022/08/13 11:35:47;;;;;;;3.10;2.83;;;;;;;;;;5111949;28;20201;-59
2022/08/13 11:38:13;;;;;;;3.37;3.07;;;;;;;;;;5111871;28;20254;-60
2022/08/13 11:40:40;;;;;;;3.10;2.80;;;;;;;;;;5112391;28;20308;-59
2022/08/13 11:43:08;;;;;;;3.27;2.97;;;;;;;;;;5112356;28;20254;-59
2022/08/13 11:45:34;;;;;;;4.70;3.17;;;;;;;;;;5112331;28;20328;-59
2022/08/13 11:48:02;;;;;;;5.20;3.10;;;;;;;;;;5112767;28;20723;-59
2022/08/13 11:50:28;;;;;;;3.70;2.90;;;;;;;;;;5111077;28;20208;-60
2022/08/13 11:52:54;;;;;;;3.33;3.03;;;;;;;;;;5112249;28;20192;-60
2022/08/13 11:55:20;;;;;;;5.10;3.60;;;;;;;;;;5112083;28;20782;-60
2022/08/13 11:57:46;;;;;;;5.03;3.23;;;;;;;;;;5112322;28;20205;-60
2022/08/13 12:00:14;;;;;;;3.83;3.40;;;;;;;;;;5111917;28;20660;-60
2022/08/13 12:02:40;;;;;;;3.00;2.80;;;;;;;;;;5112408;28;20235;-60
2022/08/13 12:05:08;;;;;;;3.23;2.90;;;;;;;;;;5111948;28;20322;-60
2022/08/13 12:07:39;;;;;;;3.73;3.43;;;;;;;;;;5111586;28;20718;-60
2022/08/13 12:10:05;;;;;;;5.40;3.30;;;;;;;;;;5111969;28;20187;-59
2022/08/13 12:12:31;;;;;;;6.37;3.20;;;;;;;;;;5112261;28;20591;-59
2022/08/13 12:14:57;;;;;;;4.27;3.67;;;;;;;;;;5110433;28;20678;-60
2022/08/13 12:17:23;;;;;;;4.70;3.30;;;;;;;;;;5112268;28;20205;-60
2022/08/13 12:19:49;;;;;;;3.60;3.30;;;;;;;;;;5112036;28;20275;-59
2022/08/13 12:22:17;;;;;;;4.03;3.53;;;;;;;;;;5111968;28;20201;-59
2022/08/13 12:24:43;;;;;;;6.40;3.43;;;;;;;;;;5110977;28;20236;-59
2022/08/13 12:27:09;;;;;;;3.77;3.47;;;;;;;;;;5111654;28;20200;-58
2022/08/13 12:29:35;;;;;;;3.50;3.17;;;;;;;;;;5111170;28;20190;-59
2022/08/13 12:32:01;;;;;;;5.20;3.17;;;;;;;;;;5111324;28;20205;-60
2022/08/13 12:34:27;;;;;;;4.90;3.40;;;;;;;;;;5111930;28;20189;-60
2022/08/13 12:36:53;;;;;;;4.63;3.43;;;;;;;;;;5111582;28;20285;-60
2022/08/13 12:39:20;;;;;;;5.37;3.40;;;;;;;;;;5111498;28;20281;-60
2022/08/13 12:41:46;;;;;;;4.97;3.77;;;;;;;;;;5111854;28;20198;-60
2022/08/13 12:44:12;;;;;;;4.20;3.37;;;;;;;;;;5111122;28;20705;-60
2022/08/13 12:46:38;;;;;;;5.90;3.60;;;;;;;;;;5110299;28;20203;-61
2022/08/13 12:49:05;;;;;;;8.83;3.73;;;;;;;;;;5111073;28;20208;-60
2022/08/13 12:51:31;;;;;;;3.23;3.03;;;;;;;;;;5109271;28;20605;-61
2022/08/13 12:53:57;;;;;;;4.57;3.23;;;;;;;;;;5111174;28;20198;-61
2022/08/13 12:56:24;;;;;;;3.40;3.10;;;;;;;;;;5109787;28;20251;-61
2022/08/13 12:58:50;;;;;;;4.17;3.20;;;;;;;;;;5112092;28;20206;-60
2022/08/13 13:01:16;;;;;;;3.77;3.47;;;;;;;;;;5111517;28;20560;-60
2022/08/13 13:03:42;;;;;;;7.57;3.87;;;;;;;;;;5110319;28;20195;-60
2022/08/13 13:06:08;;;;;;;5.10;3.43;;;;;;;;;;5111487;28;20208;-60
2022/08/13 13:08:34;;;;;;;3.73;3.43;;;;;;;;;;5111249;28;20233;-60
2022/08/13 13:11:02;;;;;;;4.37;3.30;;;;;;;;;;5111572;28;20681;-60
2022/08/13 13:13:30;;;;;;;4.60;3.43;;;;;;;;;;5111579;28;20264;-60
2022/08/13 13:15:57;;;;;;;4.47;3.58;;;;;;;;;;5110174;28;20442;-61
2022/08/13 13:18:25;;;;;;;5.30;3.80;;;;;;;;;;5109972;28;20396;-61
2022/08/13 13:20:51;;;;;;;3.70;3.40;;;;;;;;;;5111322;28;20201;-61
2022/08/13 13:23:19;;;;;;;4.63;4.23;;;;;;;;;;5111152;28;20199;-60
2022/08/13 13:25:46;;;;;;;5.23;4.50;;;;;;;;;;5109666;28;20231;-60
2022/08/13 13:28:13;;;;;;;5.20;3.73;;;;;;;;;;5111145;28;20679;-60
2022/08/13 13:30:40;;;;;;;6.83;3.67;;;;;;;;;;5111387;28;20207;-60
2022/08/13 13:33:09;;;;;;;3.43;3.13;;;;;;;;;;5111213;28;20259;-60
2022/08/13 13:35:37;;;;;;;4.30;3.40;;;;;;;;;;5113112;28;20186;-61
2022/08/13 13:38:03;;;;;;;3.90;3.60;;;;;;;;;;5114522;28;20536;-60
2022/08/13 13:40:29;;;;;;;4.03;3.63;;;;;;;;;;5114657;28;20218;-61
2022/08/13 13:42:57;;;;;;;5.03;3.70;;;;;;;;;;5114146;28;20232;-60
2022/08/13 13:45:23;;;;;;;4.80;4.40;;;;;;;;;;5114087;28;20298;-59
2022/08/13 13:47:51;;;;;;;4.43;4.03;;;;;;;;;;5113150;28;20228;-58
2022/08/13 13:50:17;;;;;;;4.45;3.83;;;;;;;;;;5113390;28;20483;-59
2022/08/13 13:52:44;;;;;;;4.30;3.90;;;;;;;;;;5114311;28;20295;-60
2022/08/13 13:55:10;;;;;;;4.27;3.50;;;;;;;;;;5114262;28;20206;-57
2022/08/13 13:57:39;;;;;;;4.70;4.30;;;;;;;;;;5114221;28;20244;-59
2022/08/13 14:00:06;;;;;;;4.33;3.60;;;;;;;;;;5114202;28;20724;-60
2022/08/13 14:02:34;;;;;;;4.30;3.90;;;;;;;;;;5114495;28;20213;-59
2022/08/13 14:05:01;;;;;;;6.27;3.70;;;;;;;;;;5114126;28;20735;-59
2022/08/13 14:07:29;;;;;;;3.97;3.67;;;;;;;;;;5114229;28;20239;-61
2022/08/13 14:09:55;;;;;;;4.23;3.87;;;;;;;;;;5112770;28;20240;-61
2022/08/13 14:12:21;;;;;;;4.10;3.67;;;;;;;;;;5113993;28;20204;-61
2022/08/13 14:14:47;;;;;;;3.97;3.67;;;;;;;;;;5114051;28;20240;-62
2022/08/13 14:17:13;;;;;;;5.63;3.90;;;;;;;;;;5113745;28;20205;-62
2022/08/13 14:19:41;;;;;;;6.20;3.87;;;;;;;;;;5113820;28;20196;-61
2022/08/13 14:22:09;;;;;;;6.60;3.57;;;;;;;;;;5113445;28;20667;-62
2022/08/13 14:24:38;;;;;;;4.17;3.37;;;;;;;;;;5113160;28;20326;-59
2022/08/13 14:27:04;;;;;;;3.80;3.50;;;;;;;;;;5113711;28;20202;-58
2022/08/13 14:29:30;;;;;;;4.23;3.47;;;;;;;;;;5111809;28;20239;-58
2022/08/13 14:31:56;;;;;;;6.57;3.53;;;;;;;;;;5113754;28;20237;-58
2022/08/13 14:34:23;;;;;;;4.10;3.60;;;;;;;;;;5113389;28;20202;-59
2022/08/13 14:36:49;;;;;;;7.17;3.77;;;;;;;;;;5113731;28;20242;-60
2022/08/13 14:39:16;;;;;;;3.80;3.47;;;;;;;;;;5113916;28;20193;-59
2022/08/13 14:41:42;;;;;;;7.27;4.23;;;;;;;;;;5113704;28;20205;-59
2022/08/13 14:44:11;;;;;;;5.43;3.90;;;;;;;;;;5113587;28;20226;-60
2022/08/13 14:46:37;;;;;;;7.07;3.93;;;;;;;;;;5113128;28;20193;-59
2022/08/13 14:49:03;;;;;;;5.23;4.10;;;;;;;;;;5113630;28;20197;-59
2022/08/13 14:51:29;;;;;;;5.53;3.97;;;;;;;;;;5111667;28;20197;-58
2022/08/13 14:53:56;;;;;;;4.10;3.70;;;;;;;;;;5113004;28;20195;-60
2022/08/13 14:56:24;;;;;;;4.70;4.00;;;;;;;;;;5113239;28;20224;-59
2022/08/13 14:58:51;;;;;;;4.70;4.30;;;;;;;;;;5113357;28;20199;-60
2022/08/13 15:01:18;;;;;;;4.77;4.27;;;;;;;;;;5113112;28;20207;-58
2022/08/13 15:03:45;;;;;;;4.30;3.90;;;;;;;;;;5112846;28;20236;-60
2022/08/13 15:06:11;;;;;;;4.10;3.80;;;;;;;;;;5112933;28;20304;-59
2022/08/13 15:08:44;;;;;;;4.97;3.90;;;;;;;;;;5112843;28;20778;-59